createdAt,value
2019-02-12T00:00:38.853Z,517.4
2019-02-12T00:01:41.280Z,517.5
2019-02-12T00:02:43.704Z,517.3
2019-02-12T00:03:46.129Z,517.2
2019-02-12T00:04:48.014Z,517.1
2019-02-12T00:05:50.187Z,517
2019-02-12T00:06:52.611Z,517.4
2019-02-12T00:07:55.037Z,517.5
2019-02-12T00:08:57.179Z,517.7
2019-02-12T00:09:59.314Z,517.1
2019-02-12T00:11:01.740Z,516.7
2019-02-12T00:12:04.175Z,516.6
2019-02-12T00:13:06.606Z,516.3
2019-02-12T00:14:08.487Z,515.9
2019-02-12T00:15:10.917Z,515.5
2019-02-12T00:16:13.084Z,515.7
2019-02-12T00:17:15.247Z,515.4
2019-02-12T00:18:17.663Z,515.2
2019-02-12T00:19:19.813Z,514.6
2019-02-12T00:20:21.965Z,514.8
2019-02-12T00:21:24.131Z,514.4
2019-02-12T00:22:26.301Z,514.3
2019-02-12T00:23:28.722Z,514.7
2019-02-12T00:24:30.841Z,514.2
2019-02-12T00:25:33.266Z,514
2019-02-12T00:26:35.705Z,513.8
2019-02-12T00:27:37.849Z,513.7
2019-02-12T00:28:40.280Z,513.8
2019-02-12T00:29:42.163Z,513.7
2019-02-12T00:30:44.587Z,513.8
2019-02-12T00:31:46.722Z,513.7
2019-02-12T00:32:49.145Z,513.3
2019-02-12T00:33:51.317Z,513.3
2019-02-12T00:34:53.484Z,512.9
2019-02-12T00:35:55.658Z,513
2019-02-12T00:36:58.102Z,512.9
2019-02-12T00:38:00.521Z,512.7
2019-02-12T00:39:02.936Z,512.2
2019-02-12T00:40:05.125Z,512
2019-02-12T00:41:07.269Z,512.3
2019-02-12T00:42:09.393Z,512.2
2019-02-12T00:43:11.545Z,512.5
2019-02-12T00:44:13.993Z,512
2019-02-12T00:45:16.154Z,512.1
2019-02-12T00:46:18.325Z,511.9
2019-02-12T00:47:20.752Z,511.8
2019-02-12T00:48:23.173Z,511.5
2019-02-12T00:49:25.639Z,511
2019-02-12T00:50:28.039Z,510.9
2019-02-12T00:51:30.465Z,510.9
2019-02-12T00:52:32.652Z,510.2
2019-02-12T00:53:34.813Z,510.3
2019-02-12T00:54:37.248Z,510.1
2019-02-12T00:55:39.686Z,510.1
2019-02-12T00:56:42.123Z,510.1
2019-02-12T00:57:44.551Z,510
2019-02-12T00:58:46.692Z,509.9
2019-02-12T00:59:49.132Z,509.8
2019-02-12T01:00:51.561Z,509.2
2019-02-12T01:01:53.425Z,509.2
2019-02-12T01:02:55.581Z,509.1
2019-02-12T01:03:57.734Z,509.2
2019-02-12T01:05:00.206Z,509.3
2019-02-12T01:06:02.333Z,508.7
2019-02-12T01:07:04.469Z,508.3
2019-02-12T01:08:06.606Z,507.7
2019-02-12T01:09:08.753Z,508.2
2019-02-12T01:10:10.907Z,507.8
2019-02-12T01:11:13.334Z,507.6
2019-02-12T01:12:15.763Z,507.6
2019-02-12T01:13:17.897Z,507.7
2019-02-12T01:14:20.322Z,508
2019-02-12T01:15:22.749Z,508.1
2019-02-12T01:16:24.879Z,508.6
2019-02-12T01:17:27.324Z,508.3
2019-02-12T01:18:29.785Z,508.7
2019-02-12T01:19:32.216Z,508.8
2019-02-12T01:20:34.116Z,508.3
2019-02-12T01:21:36.552Z,508.2
2019-02-12T01:22:38.421Z,507.9
2019-02-12T01:23:40.841Z,507.7
2019-02-12T01:24:43.011Z,507.5
2019-02-12T01:25:44.901Z,507.1
2019-02-12T01:26:47.055Z,506.9
2019-02-12T01:27:49.226Z,506.5
2019-02-12T01:28:51.653Z,506.2
2019-02-12T01:29:54.083Z,506
2019-02-12T01:30:56.510Z,505.9
2019-02-12T01:31:58.367Z,505.5
2019-02-12T01:33:00.504Z,506
2019-02-12T01:34:02.921Z,505.4
2019-02-12T01:35:05.075Z,505.2
2019-02-12T01:36:07.235Z,505.3
2019-02-12T01:37:09.655Z,505.4
2019-02-12T01:38:11.521Z,505.1
2019-02-12T01:39:13.683Z,505.2
2019-02-12T01:40:16.115Z,505.6
2019-02-12T01:41:18.569Z,505.8
2019-02-12T01:42:21.010Z,505.9
2019-02-12T01:43:23.445Z,505.9
2019-02-12T01:44:25.873Z,506.2
2019-02-12T01:45:28.287Z,506
2019-02-12T01:46:30.715Z,506.1
2019-02-12T01:47:32.805Z,506.3
2019-02-12T01:48:35.219Z,505.9
2019-02-12T01:49:37.092Z,505.8
2019-02-12T01:50:39.235Z,505.2
2019-02-12T01:51:41.663Z,505.2
2019-02-12T01:52:44.075Z,504.8
2019-02-12T01:53:46.237Z,504.6
2019-02-12T01:54:48.385Z,504.2
2019-02-12T01:55:50.535Z,504.2
2019-02-12T01:56:52.956Z,503.6
2019-02-12T01:57:55.383Z,503.4
2019-02-12T01:58:57.823Z,503.5
2019-02-12T02:00:00.431Z,503.3
2019-02-12T02:01:02.593Z,503.1
2019-02-12T02:02:04.744Z,503.1
2019-02-12T02:03:06.627Z,503.1
2019-02-12T02:04:09.043Z,502.4
2019-02-12T02:05:11.197Z,502.4
2019-02-12T02:06:13.365Z,502.6
2019-02-12T02:07:15.247Z,502.5
2019-02-12T02:08:17.135Z,502.9
2019-02-12T02:09:19.555Z,503
2019-02-12T02:10:21.985Z,503.2
2019-02-12T02:11:24.158Z,503.1
2019-02-12T02:12:26.571Z,503.3
2019-02-12T02:13:28.994Z,503.6
2019-02-12T02:14:31.423Z,503.1
2019-02-12T02:15:33.853Z,502.6
2019-02-12T02:16:36.275Z,503.2
2019-02-12T02:17:38.695Z,503.5
2019-02-12T02:18:40.573Z,503.3
2019-02-12T02:19:42.713Z,503.8
2019-02-12T02:20:45.142Z,503.5
2019-02-12T02:21:47.007Z,503.2
2019-02-12T02:22:49.475Z,503.5
2019-02-12T02:23:51.886Z,503.5
2019-02-12T02:24:53.784Z,503.8
2019-02-12T02:25:56.221Z,503.2
2019-02-12T02:26:57.803Z,503.2
2019-02-12T02:27:59.943Z,503.4
2019-02-12T02:29:02.089Z,503.3
2019-02-12T02:30:04.518Z,503.3
2019-02-12T02:31:06.947Z,503.3
2019-02-12T02:32:09.386Z,502.9
2019-02-12T02:33:11.801Z,502.9
2019-02-12T02:34:14.245Z,502.3
2019-02-12T02:35:16.679Z,502.3
2019-02-12T02:36:18.869Z,502
2019-02-12T02:37:21.297Z,501.8
2019-02-12T02:38:23.455Z,501.8
2019-02-12T02:39:25.626Z,501.9
2019-02-12T02:40:27.787Z,502.2
2019-02-12T02:41:30.265Z,502
2019-02-12T02:42:32.429Z,501.9
2019-02-12T02:43:34.581Z,502.2
2019-02-12T02:44:37.004Z,501.6
2019-02-12T02:45:39.434Z,501.7
2019-02-12T02:46:41.321Z,500.9
2019-02-12T02:47:43.445Z,500.8
2019-02-12T02:48:45.873Z,500.7
2019-02-12T02:49:48.306Z,500.8
2019-02-12T02:50:50.203Z,500.7
2019-02-12T02:52:57.313Z,500.9
2019-02-12T02:53:59.475Z,501
2019-02-12T02:55:01.898Z,501.6
2019-02-12T02:56:04.055Z,501.6
2019-02-12T02:57:06.208Z,501.9
2019-02-12T02:58:08.369Z,502.4
2019-02-12T02:59:10.539Z,502.3
2019-02-12T03:00:13.004Z,502.7
2019-02-12T03:01:14.588Z,502.9
2019-02-12T03:02:17.012Z,503
2019-02-12T03:03:19.184Z,503.2
2019-02-12T03:04:21.339Z,502.8
2019-02-12T03:05:23.809Z,503.4
2019-02-12T03:06:26.235Z,503.5
2019-02-12T03:07:28.661Z,503.4
2019-02-12T03:08:30.811Z,503.6
2019-02-12T03:09:32.968Z,503.8
2019-02-12T03:10:35.398Z,503.4
2019-02-12T03:11:37.819Z,503.3
2019-02-12T03:12:40.239Z,503.4
2019-02-12T03:13:42.670Z,503.2
2019-02-12T03:14:44.545Z,502.9
2019-02-12T03:15:46.985Z,502.5
2019-02-12T03:16:49.424Z,502.7
2019-02-12T03:17:51.858Z,502.4
2019-02-12T03:18:53.997Z,502.9
2019-02-12T03:19:56.438Z,502.4
2019-02-12T03:20:58.863Z,502.3
2019-02-12T03:23:06.276Z,502.6
2019-02-12T03:24:08.703Z,502.6
2019-02-12T03:25:10.860Z,502.3
2019-02-12T03:26:13.291Z,502
2019-02-12T03:27:15.721Z,502
2019-02-12T03:28:18.157Z,502.9
2019-02-12T03:29:20.308Z,502.4
2019-02-12T03:30:22.748Z,502.5
2019-02-12T03:31:24.913Z,502
2019-02-12T03:32:27.449Z,502.1
2019-02-12T03:33:29.910Z,502
2019-02-12T03:34:32.325Z,501.4
2019-02-12T03:35:34.197Z,501.7
2019-02-12T03:36:36.628Z,501.8
2019-02-12T03:37:39.061Z,501.3
2019-02-12T03:38:41.489Z,500.9
2019-02-12T03:39:43.920Z,500.7
2019-02-12T03:40:46.079Z,500.7
2019-02-12T03:41:48.217Z,499.8
2019-02-12T03:42:50.367Z,499.7
2019-02-12T03:43:52.794Z,499.5
2019-02-12T03:44:55.232Z,499.3
2019-02-12T03:45:57.095Z,499.3
2019-02-12T03:46:59.523Z,499.3
2019-02-12T03:48:01.964Z,498.8
2019-02-12T03:49:03.815Z,498.5
2019-02-12T03:50:06.238Z,498.1
2019-02-12T03:51:08.660Z,497.9
2019-02-12T03:53:16.096Z,497.6
2019-02-12T03:54:18.523Z,497.7
2019-02-12T03:55:20.396Z,497.7
2019-02-12T03:56:22.261Z,497.9
2019-02-12T03:57:24.124Z,497.7
2019-02-12T03:58:26.008Z,497.7
2019-02-12T03:59:28.431Z,497.9
2019-02-12T04:00:30.603Z,497.9
2019-02-12T04:01:33.037Z,498.3
2019-02-12T04:02:35.473Z,498
2019-02-12T04:03:38.685Z,498.3
2019-02-12T04:04:40.845Z,498.6
2019-02-12T04:05:43.007Z,498.5
2019-02-12T04:06:45.160Z,498.5
2019-02-12T04:07:47.021Z,498.8
2019-02-12T04:08:48.924Z,498.2
2019-02-12T04:09:51.073Z,497.9
2019-02-12T04:10:53.486Z,497.9
2019-02-12T04:11:54.818Z,498.1
2019-02-12T04:12:56.965Z,497.7
2019-02-12T04:13:59.394Z,497.8
2019-02-12T04:15:01.545Z,497.6
2019-02-12T04:16:03.427Z,497.7
2019-02-12T04:17:05.588Z,497.4
2019-02-12T04:18:08.013Z,497.2
2019-02-12T04:19:10.253Z,496.8
2019-02-12T04:20:12.718Z,497
2019-02-12T04:21:14.884Z,496.7
2019-02-12T04:23:22.030Z,496.6
2019-02-12T04:24:24.463Z,495.9
2019-02-12T04:25:26.633Z,495.7
2019-02-12T04:26:28.764Z,495.9
2019-02-12T04:27:30.912Z,495.8
2019-02-12T04:28:33.076Z,495.7
2019-02-12T04:29:35.222Z,495.7
2019-02-12T04:30:37.647Z,495.7
2019-02-12T04:31:39.784Z,495.3
2019-02-12T04:32:42.232Z,495.2
2019-02-12T04:33:44.386Z,495.4
2019-02-12T04:34:46.801Z,495.6
2019-02-12T04:35:49.291Z,495.8
2019-02-12T04:36:51.144Z,496.3
2019-02-12T04:37:53.310Z,496.2
2019-02-12T04:38:55.724Z,496
2019-02-12T04:39:58.141Z,496.2
2019-02-12T04:41:00.575Z,495.8
2019-02-12T04:42:03.007Z,495.8
2019-02-12T04:43:05.430Z,495.6
2019-02-12T04:44:07.854Z,495.5
2019-02-12T04:45:10.276Z,495.5
2019-02-12T04:46:12.702Z,494.7
2019-02-12T04:47:14.854Z,495.3
2019-02-12T04:48:16.712Z,495.3
2019-02-12T04:49:18.599Z,495.1
2019-02-12T04:50:20.781Z,495.2
2019-02-12T04:51:23.201Z,495.5
2019-02-12T04:53:30.323Z,495.6
2019-02-12T04:54:32.786Z,496
2019-02-12T04:55:34.946Z,495.9
2019-02-12T04:56:37.094Z,495.8
2019-02-12T04:57:39.525Z,495.5
2019-02-12T04:58:41.955Z,495.4
2019-02-12T04:59:44.377Z,495.3
2019-02-12T05:00:46.526Z,495.3
2019-02-12T05:01:48.949Z,494.6
2019-02-12T05:02:51.380Z,494.8
2019-02-12T05:03:53.516Z,494.7
2019-02-12T05:04:55.684Z,495
2019-02-12T05:05:58.190Z,495.1
2019-02-12T05:07:00.340Z,495.2
2019-02-12T05:08:02.475Z,494.9
2019-02-12T05:09:04.631Z,495.4
2019-02-12T05:10:07.058Z,495.3
2019-02-12T05:11:09.206Z,495.2
2019-02-12T05:12:11.428Z,494.3
2019-02-12T05:13:13.294Z,494.1
2019-02-12T05:14:15.150Z,493.9
2019-02-12T05:15:17.914Z,494.2
2019-02-12T05:16:20.094Z,493.5
2019-02-12T05:17:22.254Z,493.7
2019-02-12T05:18:24.402Z,493.1
2019-02-12T05:19:26.926Z,493.6
2019-02-12T05:20:29.351Z,493.4
2019-02-12T05:21:31.786Z,493.4
2019-02-12T05:23:38.922Z,493.2
2019-02-12T05:24:41.362Z,493.8
2019-02-12T05:25:43.816Z,493.4
2019-02-12T05:26:46.274Z,493.2
2019-02-12T05:27:48.167Z,493.4
2019-02-12T05:28:50.336Z,493
2019-02-12T05:29:52.772Z,493.2
2019-02-12T05:30:55.204Z,492.7
2019-02-12T05:31:57.624Z,492.8
2019-02-12T05:32:59.786Z,492.7
2019-02-12T05:34:02.224Z,492.4
2019-02-12T05:35:04.564Z,492.1
2019-02-12T05:36:06.719Z,492.1
2019-02-12T05:37:09.170Z,492
2019-02-12T05:38:11.323Z,492.2
2019-02-12T05:39:13.747Z,492.3
2019-02-12T05:40:16.194Z,492.3
2019-02-12T05:41:18.622Z,492
2019-02-12T05:42:20.486Z,491.3
2019-02-12T05:43:22.641Z,491.9
2019-02-12T05:44:24.804Z,491.2
2019-02-12T05:45:26.962Z,491.3
2019-02-12T05:46:29.394Z,491.5
2019-02-12T05:47:31.550Z,491.7
2019-02-12T05:48:33.999Z,491.4
2019-02-12T05:49:36.146Z,491.5
2019-02-12T05:50:38.302Z,491.9
2019-02-12T05:51:40.176Z,491.8
2019-02-12T05:52:42.433Z,492.4
2019-02-12T05:53:44.292Z,492.6
2019-02-12T05:54:46.171Z,492.3
2019-02-12T05:55:48.581Z,492.3
2019-02-12T05:56:50.744Z,492
2019-02-12T05:57:53.239Z,491.6
2019-02-12T05:58:55.652Z,491.8
2019-02-12T05:59:57.803Z,492
2019-02-12T06:01:00.232Z,491.6
2019-02-12T06:02:02.401Z,491.4
2019-02-12T06:03:04.822Z,490.8
2019-02-12T06:04:06.708Z,491.3
2019-02-12T06:05:08.894Z,491
2019-02-12T06:06:11.323Z,490.9
2019-02-12T06:07:13.756Z,490.8
2019-02-12T06:08:15.966Z,490.6
2019-02-12T06:09:18.424Z,490.5
2019-02-12T06:10:20.864Z,490.7
2019-02-12T06:11:23.025Z,490
2019-02-12T06:12:25.466Z,489.6
2019-02-12T06:13:27.886Z,489.2
2019-02-12T06:14:30.312Z,489.4
2019-02-12T06:15:32.450Z,488.8
2019-02-12T06:16:34.882Z,489
2019-02-12T06:17:37.312Z,489.2
2019-02-12T06:18:39.748Z,488.9
2019-02-12T06:19:41.903Z,488.8
2019-02-12T06:20:44.057Z,488.7
2019-02-12T06:21:46.229Z,488.6
2019-02-12T06:22:48.644Z,488.6
2019-02-12T06:23:51.092Z,488.3
2019-02-12T06:24:53.520Z,488.4
2019-02-12T06:25:55.967Z,488
2019-02-12T06:26:59.662Z,487.8
2019-02-12T06:28:01.879Z,487.8
2019-02-12T06:29:04.031Z,487.7
2019-02-12T06:30:06.199Z,487.5
2019-02-12T06:31:08.062Z,487.6
2019-02-12T06:32:10.253Z,487.9
2019-02-12T06:33:12.687Z,487.8
2019-02-12T06:34:14.894Z,487.5
2019-02-12T06:35:17.324Z,487.5
2019-02-12T06:36:19.748Z,487.9
2019-02-12T06:37:21.897Z,487.9
2019-02-12T06:38:24.046Z,487.7
2019-02-12T06:39:26.490Z,487.6
2019-02-12T06:40:28.938Z,487.6
2019-02-12T06:41:31.365Z,487.4
2019-02-12T06:42:33.795Z,487.2
2019-02-12T06:43:35.959Z,487.4
2019-02-12T06:44:38.153Z,487.3
2019-02-12T06:45:40.583Z,487.2
2019-02-12T06:46:42.999Z,487.2
2019-02-12T06:47:44.864Z,487.2
2019-02-12T06:48:46.748Z,487.1
2019-02-12T06:49:49.173Z,487.1
2019-02-12T06:50:51.605Z,487
2019-02-12T06:51:53.758Z,486.9
2019-02-12T06:52:55.902Z,487.1
2019-02-12T06:53:58.375Z,486.5
2019-02-12T06:55:00.923Z,486.9
2019-02-12T06:56:03.072Z,487
2019-02-12T06:57:05.230Z,486.5
2019-02-12T06:58:07.129Z,486.5
2019-02-12T06:59:09.557Z,486.1
2019-02-12T07:00:11.443Z,486.1
2019-02-12T07:01:13.885Z,486.3
2019-02-12T07:02:16.045Z,485.8
2019-02-12T07:03:18.481Z,486.1
2019-02-12T07:04:20.906Z,486.5
2019-02-12T07:05:23.043Z,486.6
2019-02-12T07:06:25.468Z,486.5
2019-02-12T07:07:27.412Z,486
2019-02-12T07:08:29.908Z,485.4
2019-02-12T07:09:32.345Z,485.2
2019-02-12T07:10:34.491Z,484.7
2019-02-12T07:11:36.948Z,484.7
2019-02-12T07:12:39.096Z,484.1
2019-02-12T07:13:41.534Z,483.9
2019-02-12T07:14:43.964Z,484
2019-02-12T07:15:46.394Z,484.2
2019-02-12T07:16:48.823Z,484.3
2019-02-12T07:17:50.991Z,484
2019-02-12T07:18:55.521Z,483.7
2019-02-12T07:19:57.695Z,483.4
2019-02-12T07:21:00.147Z,483.3
2019-02-12T07:22:02.596Z,483
2019-02-12T07:23:04.799Z,482.6
2019-02-12T07:24:06.939Z,482.3
2019-02-12T07:25:09.091Z,482.4
2019-02-12T07:26:11.516Z,482.1
2019-02-12T07:27:13.954Z,482.2
2019-02-12T07:28:16.519Z,482.2
2019-02-12T07:29:18.982Z,481.8
2019-02-12T07:30:21.120Z,482
2019-02-12T07:31:23.301Z,481.1
2019-02-12T07:32:25.467Z,480.8
2019-02-12T07:33:27.894Z,480.4
2019-02-12T07:34:30.322Z,480.1
2019-02-12T07:35:32.465Z,480.1
2019-02-12T07:36:34.611Z,480
2019-02-12T07:37:36.781Z,479.8
2019-02-12T07:38:38.909Z,479.1
2019-02-12T07:39:41.365Z,478.8
2019-02-12T07:40:43.502Z,479
2019-02-12T07:41:45.674Z,478.9
2019-02-12T07:42:47.839Z,478.9
2019-02-12T07:43:50.000Z,478.5
2019-02-12T07:44:51.880Z,478.3
2019-02-12T07:45:54.066Z,478.3
2019-02-12T07:46:56.236Z,478.2
2019-02-12T07:47:58.414Z,478.3
2019-02-12T07:49:00.853Z,477.9
2019-02-12T07:50:03.315Z,478.1
2019-02-12T07:51:05.773Z,478.2
2019-02-12T07:52:08.207Z,478
2019-02-12T07:53:10.375Z,477.7
2019-02-12T07:54:12.387Z,477.3
2019-02-12T07:55:14.857Z,477.6
2019-02-12T07:56:17.308Z,477.3
2019-02-12T07:57:19.209Z,477.6
2019-02-12T07:58:21.871Z,477.3
2019-02-12T07:59:24.302Z,477.4
2019-02-12T08:00:26.753Z,477.3
2019-02-12T08:01:29.177Z,477.1
2019-02-12T08:02:33.738Z,476.9
2019-02-12T08:03:35.982Z,477
2019-02-12T08:04:38.445Z,476.7
2019-02-12T08:05:40.867Z,476.4
2019-02-12T08:06:43.295Z,476.5
2019-02-12T08:07:45.741Z,476.1
2019-02-12T08:08:48.166Z,476.4
2019-02-12T08:09:50.595Z,476.2
2019-02-12T08:10:53.054Z,476.1
2019-02-12T08:11:55.185Z,476.4
2019-02-12T08:12:57.352Z,476.6
2019-02-12T08:13:59.512Z,476.6
2019-02-12T08:15:02.075Z,476.3
2019-02-12T08:16:04.251Z,476.2
2019-02-12T08:17:06.715Z,476.2
2019-02-12T08:18:09.141Z,476.4
2019-02-12T08:19:11.568Z,477
2019-02-12T08:20:13.715Z,476.8
2019-02-12T08:21:15.577Z,477.3
2019-02-12T08:22:18.048Z,476.8
2019-02-12T08:23:20.455Z,477
2019-02-12T08:24:22.609Z,476.9
2019-02-12T08:25:24.814Z,476.8
2019-02-12T08:26:27.235Z,476.5
2019-02-12T08:27:29.409Z,476.5
2019-02-12T08:28:31.835Z,476.7
2019-02-12T08:29:34.038Z,476.4
2019-02-12T08:30:36.458Z,476.2
2019-02-12T08:31:38.888Z,476
2019-02-12T08:32:41.314Z,475.6
2019-02-12T08:33:43.485Z,476.5
2019-02-12T08:34:46.945Z,476.7
2019-02-12T08:36:54.362Z,477.1
2019-02-12T08:37:56.778Z,476.5
2019-02-12T08:38:59.215Z,477
2019-02-12T08:40:01.692Z,476.8
2019-02-12T08:41:03.585Z,476.9
2019-02-12T08:42:05.744Z,476.7
2019-02-12T08:43:08.194Z,476.7
2019-02-12T08:44:10.641Z,476.4
2019-02-12T08:45:13.075Z,476
2019-02-12T08:46:15.244Z,475.7
2019-02-12T08:47:17.665Z,475.7
2019-02-12T08:48:20.127Z,476.3
2019-02-12T08:49:22.543Z,475.6
2019-02-12T08:50:24.974Z,475.1
2019-02-12T08:51:27.115Z,474.9
2019-02-12T08:52:29.261Z,474.8
2019-02-12T08:53:31.683Z,474.8
2019-02-12T08:54:34.118Z,474.8
2019-02-12T08:55:38.508Z,474.7
2019-02-12T08:56:40.960Z,474.8
2019-02-12T08:57:43.441Z,474.1
2019-02-12T08:58:45.592Z,474.1
2019-02-12T08:59:48.055Z,473.7
2019-02-12T09:00:49.972Z,474.2
2019-02-12T09:01:52.149Z,474
2019-02-12T09:02:54.578Z,474.4
2019-02-12T09:03:56.999Z,474.5
2019-02-12T09:04:59.170Z,474.3
2019-02-12T09:06:03.734Z,474.2
2019-02-12T09:07:08.239Z,474.1
2019-02-12T09:08:10.390Z,474.1
2019-02-12T09:09:11.997Z,473.9
2019-02-12T09:10:14.425Z,474
2019-02-12T09:11:16.316Z,474
2019-02-12T09:12:18.739Z,473.7
2019-02-12T09:13:20.866Z,473.7
2019-02-12T09:14:23.295Z,473.7
2019-02-12T09:15:25.463Z,473.3
2019-02-12T09:16:27.609Z,473.8
2019-02-12T09:17:30.046Z,473.5
2019-02-12T09:18:32.205Z,473.2
2019-02-12T09:19:34.361Z,473.6
2019-02-12T09:20:36.795Z,473.4
2019-02-12T09:21:39.399Z,472.9
2019-02-12T09:22:41.565Z,473.3
2019-02-12T09:23:43.994Z,473.3
2019-02-12T09:24:46.413Z,472.9
2019-02-12T09:25:48.557Z,472.5
2019-02-12T09:26:50.992Z,472.3
2019-02-12T09:27:52.580Z,472
2019-02-12T09:28:55.065Z,472.1
2019-02-12T09:29:57.225Z,471.8
2019-02-12T09:30:59.655Z,471.4
2019-02-12T09:32:01.815Z,471.5
2019-02-12T09:33:03.990Z,471.1
2019-02-12T09:34:06.422Z,471.3
2019-02-12T09:35:08.851Z,471.4
2019-02-12T09:36:11.261Z,471.6
2019-02-12T09:37:13.695Z,471.5
2019-02-12T09:38:15.840Z,471
2019-02-12T09:39:18.013Z,471.2
2019-02-12T09:40:21.422Z,471.1
2019-02-12T09:41:23.581Z,471.1
2019-02-12T09:42:25.732Z,471.5
2019-02-12T09:43:28.166Z,470.4
2019-02-12T09:44:30.588Z,471.3
2019-02-12T09:45:33.035Z,471.1
2019-02-12T09:46:35.495Z,471.2
2019-02-12T09:47:37.924Z,471.1
2019-02-12T09:48:40.351Z,471.2
2019-02-12T09:49:42.231Z,471.7
2019-02-12T09:50:44.413Z,471.7
2019-02-12T09:51:46.852Z,471.4
2019-02-12T09:52:49.293Z,471.5
2019-02-12T09:53:51.729Z,471.7
2019-02-12T09:54:55.836Z,471.3
2019-02-12T09:55:58.286Z,471.5
2019-02-12T09:57:00.180Z,471.7
2019-02-12T09:58:02.634Z,471.5
2019-02-12T09:59:04.825Z,471.2
2019-02-12T10:01:12.725Z,471.4
2019-02-12T10:02:14.605Z,471.3
2019-02-12T10:03:16.501Z,471.2
2019-02-12T10:04:18.938Z,471.4
2019-02-12T10:05:21.084Z,471.2
2019-02-12T10:07:28.148Z,471.5
2019-02-12T10:08:30.583Z,471.3
2019-02-12T10:09:33.010Z,470.9
2019-02-12T10:10:35.431Z,470.7
2019-02-12T10:11:37.852Z,470.6
2019-02-12T10:12:40.271Z,470.9
2019-02-12T10:13:42.695Z,470.9
2019-02-12T10:14:45.121Z,470.9
2019-02-12T10:15:47.541Z,470.7
2019-02-12T10:16:49.961Z,470.4
2019-02-12T10:17:52.382Z,470
2019-02-12T10:18:54.532Z,470.1
2019-02-12T10:19:56.966Z,470.4
2019-02-12T10:20:59.401Z,470.4
2019-02-12T10:22:01.561Z,470.1
2019-02-12T10:23:03.715Z,470
2019-02-12T10:24:06.156Z,470.2
2019-02-12T10:25:08.588Z,470.1
2019-02-12T10:26:11.026Z,470.5
2019-02-12T10:27:13.460Z,470.3
2019-02-12T10:28:15.892Z,469.7
2019-02-12T10:29:18.030Z,469.8
2019-02-12T10:30:20.452Z,470.1
2019-02-12T10:31:22.037Z,469.6
2019-02-12T10:32:23.905Z,469.9
2019-02-12T10:33:26.334Z,469.4
2019-02-12T10:34:28.777Z,469.7
2019-02-12T10:35:31.205Z,469.2
2019-02-12T10:36:33.379Z,469.4
2019-02-12T10:37:35.816Z,469.4
2019-02-12T10:38:38.240Z,469.3
2019-02-12T10:39:40.664Z,469.3
2019-02-12T10:40:42.810Z,469.7
2019-02-12T10:41:45.276Z,469.3
2019-02-12T10:42:47.715Z,469.6
2019-02-12T10:43:49.577Z,469.6
2019-02-12T10:44:51.744Z,470
2019-02-12T10:45:54.172Z,469.8
2019-02-12T10:46:56.336Z,470
2019-02-12T10:47:58.223Z,469.5
2019-02-12T10:49:00.644Z,469.8
2019-02-12T10:50:03.094Z,469.5
2019-02-12T10:51:05.245Z,469.7
2019-02-12T10:52:07.123Z,469.2
2019-02-12T10:53:10.701Z,469.6
2019-02-12T10:55:18.107Z,469.4
2019-02-12T10:56:20.284Z,468.9
2019-02-12T10:57:22.423Z,469.6
2019-02-12T10:58:24.563Z,470
2019-02-12T10:59:27.002Z,469.7
2019-02-12T11:00:29.442Z,469.6
2019-02-12T11:01:31.871Z,470.2
2019-02-12T11:02:34.033Z,469.8
2019-02-12T11:03:36.162Z,470
2019-02-12T11:04:38.325Z,470.4
2019-02-12T11:05:40.764Z,470
2019-02-12T11:06:42.910Z,470.1
2019-02-12T11:07:45.353Z,470
2019-02-12T11:08:47.795Z,470
2019-02-12T11:09:50.215Z,470
2019-02-12T11:10:52.364Z,469.9
2019-02-12T11:11:54.799Z,470.2
2019-02-12T11:12:56.968Z,470.1
2019-02-12T11:13:59.401Z,469.7
2019-02-12T11:15:01.833Z,470.2
2019-02-12T11:16:04.299Z,469.9
2019-02-12T11:17:06.207Z,470
2019-02-12T11:18:08.361Z,469.1
2019-02-12T11:19:10.789Z,470.1
2019-02-12T11:20:13.221Z,469.1
2019-02-12T11:21:15.682Z,469.6
2019-02-12T11:22:17.878Z,469.5
2019-02-12T11:23:20.319Z,469.3
2019-02-12T11:24:22.755Z,469.1
2019-02-12T11:25:24.923Z,469.5
2019-02-12T11:26:26.846Z,469.4
2019-02-12T11:27:29.009Z,469
2019-02-12T11:28:31.166Z,469.6
2019-02-12T11:29:33.342Z,469.2
2019-02-12T11:30:35.474Z,469.7
2019-02-12T11:31:37.615Z,469.7
2019-02-12T11:32:40.043Z,470.1
2019-02-12T11:33:42.482Z,469.4
2019-02-12T11:34:44.924Z,469.2
2019-02-12T11:35:47.354Z,469.4
2019-02-12T11:36:49.539Z,469.6
2019-02-12T11:37:51.974Z,469.8
2019-02-12T11:38:54.138Z,469.6
2019-02-12T11:39:56.571Z,469.6
2019-02-12T11:40:58.996Z,470.1
2019-02-12T11:42:01.154Z,469.7
2019-02-12T11:43:03.580Z,470.3
2019-02-12T11:44:05.438Z,470
2019-02-12T11:45:07.857Z,470.5
2019-02-12T11:46:10.301Z,470.3
2019-02-12T11:47:12.454Z,470.6
2019-02-12T11:48:14.608Z,471.2
2019-02-12T11:49:16.766Z,470.7
2019-02-12T11:50:18.924Z,470.9
2019-02-12T11:51:21.357Z,470.7
2019-02-12T11:52:23.786Z,470.5
2019-02-12T11:53:27.959Z,471.3
2019-02-12T11:54:30.226Z,470.4
2019-02-12T11:55:32.650Z,470.2
2019-02-12T11:56:35.087Z,470.4
2019-02-12T11:57:37.514Z,470.3
2019-02-12T11:58:39.686Z,470.5
2019-02-12T11:59:41.863Z,471
2019-02-12T12:00:44.292Z,470.8
2019-02-12T12:01:46.747Z,470.7
2019-02-12T12:02:48.901Z,471.2
2019-02-12T12:03:51.340Z,471
2019-02-12T12:04:53.478Z,471.1
2019-02-12T12:05:55.625Z,471.5
2019-02-12T12:06:58.048Z,470.5
2019-02-12T12:08:00.468Z,471
2019-02-12T12:09:02.640Z,471
2019-02-12T12:10:05.070Z,470.6
2019-02-12T12:11:07.230Z,470.3
2019-02-12T12:12:09.395Z,470.4
2019-02-12T12:13:11.824Z,470.3
2019-02-12T12:14:14.244Z,470.3
2019-02-12T12:15:16.114Z,469.7
2019-02-12T12:16:18.271Z,469.1
2019-02-12T12:17:20.158Z,468.8
2019-02-12T12:18:22.059Z,469.5
2019-02-12T12:19:23.938Z,469.5
2019-02-12T12:20:26.376Z,469.8
2019-02-12T12:21:28.792Z,469.9
2019-02-12T12:22:30.678Z,469.9
2019-02-12T12:23:32.841Z,470
2019-02-12T12:24:35.002Z,469.7
2019-02-12T12:25:37.186Z,469.7
2019-02-12T12:26:39.614Z,470.2
2019-02-12T12:27:42.062Z,470.2
2019-02-12T12:28:45.360Z,469.8
2019-02-12T12:29:47.493Z,469.5
2019-02-12T12:30:49.725Z,469.5
2019-02-12T12:31:52.174Z,468.7
2019-02-12T12:32:54.605Z,469.1
2019-02-12T12:33:57.036Z,469.4
2019-02-12T12:35:00.713Z,469.6
2019-02-12T12:36:02.592Z,470
2019-02-12T12:37:04.758Z,469.5
2019-02-12T12:38:06.908Z,469.7
2019-02-12T12:39:09.358Z,469.2
2019-02-12T12:40:11.503Z,469.7
2019-02-12T12:41:13.924Z,469.7
2019-02-12T12:42:16.350Z,469.6
2019-02-12T12:43:18.900Z,469
2019-02-12T12:44:21.413Z,469.4
2019-02-12T12:45:23.565Z,469.1
2019-02-12T12:46:25.732Z,468.8
2019-02-12T12:47:27.868Z,469.1
2019-02-12T12:48:30.026Z,468.8
2019-02-12T12:49:32.208Z,468.6
2019-02-12T12:50:34.069Z,468.5
2019-02-12T12:51:36.504Z,468.3
2019-02-12T12:52:38.943Z,468.5
2019-02-12T12:53:41.368Z,468.3
2019-02-12T12:54:43.274Z,468.4
2019-02-12T12:55:45.703Z,468.7
2019-02-12T12:56:48.115Z,468.5
2019-02-12T12:57:50.534Z,468.5
2019-02-12T12:58:52.736Z,467.9
2019-02-12T12:59:55.171Z,467.3
2019-02-12T13:00:57.998Z,468
2019-02-12T13:02:00.440Z,468
2019-02-12T13:03:02.616Z,467.6
2019-02-12T13:04:05.037Z,467.9
2019-02-12T13:05:06.916Z,467.7
2019-02-12T13:06:09.090Z,467.7
2019-02-12T13:07:11.527Z,467.7
2019-02-12T13:08:13.700Z,468.4
2019-02-12T13:09:16.139Z,467.8
2019-02-12T13:10:18.567Z,467.7
2019-02-12T13:11:20.724Z,467.6
2019-02-12T13:12:23.163Z,468.3
2019-02-12T13:13:25.599Z,468.2
2019-02-12T13:14:27.757Z,467.9
2019-02-12T13:15:30.182Z,467.9
2019-02-12T13:16:32.623Z,467.9
2019-02-12T13:17:34.232Z,467.8
2019-02-12T13:18:36.395Z,467.5
2019-02-12T13:19:38.834Z,468.3
2019-02-12T13:20:40.996Z,467.8
2019-02-12T13:21:43.430Z,467.7
2019-02-12T13:22:45.850Z,467.6
2019-02-12T13:23:48.012Z,467.2
2019-02-12T13:24:50.141Z,468.1
2019-02-12T13:25:52.038Z,467.2
2019-02-12T13:26:54.196Z,467.4
2019-02-12T13:27:56.092Z,467.1
2019-02-12T13:28:58.515Z,467.6
2019-02-12T13:30:02.207Z,467.5
2019-02-12T13:31:04.080Z,467.3
2019-02-12T13:32:06.524Z,467.4
2019-02-12T13:33:08.677Z,467.3
2019-02-12T13:34:10.821Z,467.2
2019-02-12T13:35:13.256Z,467.3
2019-02-12T13:36:15.163Z,467.2
2019-02-12T13:37:17.324Z,467.2
2019-02-12T13:38:19.745Z,467.3